Langaci-Limbai Airport


Codes: EVAH/
Name: Langaci-Limbai Airport
City: Limbai
Country: Latvia
Elevation: 211 ft.
Website:

Photos at Langaci-Limbai Airport


   Photos courtesy of SpottingLog. You can add your own sightings and photos by signing up for a free trial today.



No photos found.

Weather at Langaci-Limbai Airport


Time (UTC)DescriptionTempratureWindCloud coverageVisibilityPressureHumidity
25-Jun-2024 15:00Scattered Clouds22°C7 mph, NW25%10000m1021hPa36%
25-Jun-2024 18:00Few Clouds18°C4 mph, NW20%10000m1020hPa58%
25-Jun-2024 21:00Few Clouds13°C2 mph, NW17%10000m1021hPa72%
26-Jun-2024 00:00Clear Sky12°C2 mph, NW9%10000m1021hPa72%
26-Jun-2024 03:00Clear Sky14°C2 mph, W3%10000m1021hPa72%
26-Jun-2024 06:00Clear Sky20°C4 mph, W1%10000m1020hPa51%
26-Jun-2024 09:00Clear Sky23°C7 mph, W0%10000m1020hPa39%
26-Jun-2024 12:00Clear Sky24°C7 mph, W1%10000m1019hPa36%
26-Jun-2024 15:00Clear Sky24°C4 mph, NW1%10000m1018hPa42%
26-Jun-2024 18:00Clear Sky20°C4 mph, N0%10000m1018hPa72%
26-Jun-2024 21:00Clear Sky16°C2 mph, NE0%10000m1018hPa77%
27-Jun-2024 00:00Clear Sky15°C4 mph, E0%10000m1018hPa76%
27-Jun-2024 03:00Clear Sky16°C4 mph, SE0%10000m1018hPa78%
27-Jun-2024 06:00Clear Sky22°C2 mph, S0%10000m1018hPa56%
27-Jun-2024 09:00Clear Sky27°C2 mph, SW0%10000m1017hPa42%
27-Jun-2024 12:00Clear Sky28°C4 mph, W0%10000m1017hPa36%
27-Jun-2024 15:00Clear Sky28°C4 mph, NW0%10000m1016hPa39%
27-Jun-2024 18:00Clear Sky22°C4 mph, NE0%10000m1016hPa70%
27-Jun-2024 21:00Clear Sky19°C4 mph, E0%10000m1016hPa79%
28-Jun-2024 00:00Clear Sky18°C4 mph, SE0%10000m1016hPa82%
28-Jun-2024 03:00Clear Sky19°C4 mph, SE0%10000m1016hPa83%
28-Jun-2024 06:00Clear Sky25°C7 mph, S0%10000m1016hPa61%
28-Jun-2024 09:00Clear Sky29°C9 mph, S0%10000m1015hPa42%
28-Jun-2024 12:00Clear Sky31°C11 mph, SW1%10000m1014hPa35%
28-Jun-2024 15:00Scattered Clouds29°C9 mph, SW40%10000m1013hPa44%
28-Jun-2024 18:00Broken Clouds25°C7 mph, S51%10000m1012hPa60%
28-Jun-2024 21:00Overcast Clouds23°C11 mph, SW100%10000m1013hPa71%
29-Jun-2024 00:00Light Rain19°C9 mph, SW100%10000m1013hPa97%
29-Jun-2024 03:00Light Rain18°C4 mph, W100%10000m1014hPa99%
29-Jun-2024 06:00Broken Clouds19°C7 mph, W81%10000m1015hPa78%
29-Jun-2024 09:00Clear Sky22°C9 mph, W9%10000m1016hPa56%
29-Jun-2024 12:00Few Clouds23°C7 mph, W17%10000m1016hPa46%
29-Jun-2024 15:00Scattered Clouds21°C9 mph, NW43%10000m1016hPa51%
29-Jun-2024 18:00Scattered Clouds17°C4 mph, NW37%10000m1016hPa70%
29-Jun-2024 21:00Clear Sky12°C2 mph, N9%10000m1016hPa86%
30-Jun-2024 00:00Few Clouds11°C2 mph, NE11%10000m1016hPa88%
30-Jun-2024 03:00Clear Sky13°C2 mph, E3%10000m1016hPa83%
30-Jun-2024 06:00Scattered Clouds19°C4 mph, SE35%10000m1015hPa59%
30-Jun-2024 09:00Broken Clouds24°C4 mph, SE75%10000m1013hPa42%
30-Jun-2024 12:00Scattered Clouds27°C4 mph, S41%10000m1011hPa31%